Time;durP1;ratioP1;P1;durP2;ratioP2;P2;SDS_P1;SDS_P2;PMS_P1;PMS_P2;Temp;Humidity;BMP_temperature;BMP_pressure;BME280_temperature;BME280_humidity;BME280_pressure;Samples;Min_cycle;Max_cycle;Signal;HPM_P1;HPM_P2
2023/12/07 00:01:47;;;;;;;0.77;0.73;;;4.60;99.90;;;;;;5003728;28;20236;-81
2023/12/07 00:04:13;;;;;;;0.90;0.90;;;4.60;99.90;;;;;;5019974;28;20240;-82
2023/12/07 00:06:38;;;;;;;0.97;0.97;;;4.70;99.90;;;;;;5003524;28;20217;-82
2023/12/07 00:09:04;;;;;;;1.90;1.87;;;4.70;99.90;;;;;;5036071;28;20333;-82
2023/12/07 00:11:31;;;;;;;2.50;1.60;;;4.80;99.90;;;;;;5020839;28;20206;-82
2023/12/07 00:13:57;;;;;;;0.90;0.90;;;4.70;99.90;;;;;;5036283;28;20283;-82
2023/12/07 00:16:23;;;;;;;1.50;1.40;;;4.80;99.90;;;;;;5003504;28;20225;-82
2023/12/07 00:18:48;;;;;;;1.70;0.97;;;4.70;99.90;;;;;;5027219;28;20217;-82
2023/12/07 00:21:14;;;;;;;1.87;1.77;;;4.80;99.90;;;;;;5016457;28;20231;-83
2023/12/07 00:23:40;;;;;;;1.00;1.00;;;4.80;99.90;;;;;;5000379;28;20558;-82
2023/12/07 00:26:06;;;;;;;2.77;2.67;;;4.70;99.90;;;;;;5016170;28;20245;-82
2023/12/07 00:28:32;;;;;;;2.30;1.10;;;4.70;99.90;;;;;;5000355;28;20218;-83
2023/12/07 00:30:57;;;;;;;1.50;1.50;;;4.70;99.90;;;;;;5016012;28;20230;-83
2023/12/07 00:33:23;;;;;;;1.73;1.13;;;4.60;99.90;;;;;;4999945;28;20306;-82
2023/12/07 00:35:50;;;;;;;2.10;1.90;;;4.60;99.90;;;;;;4983896;28;20219;-82
2023/12/07 00:38:15;;;;;;;3.87;1.10;;;4.70;99.90;;;;;;5000216;28;20588;-82
2023/12/07 00:40:41;;;;;;;2.23;1.77;;;4.70;99.90;;;;;;4983694;28;20291;-82
2023/12/07 00:43:07;;;;;;;2.63;1.30;;;4.70;99.90;;;;;;4999720;28;20268;-83
2023/12/07 00:45:33;;;;;;;0.53;0.53;;;4.70;99.90;;;;;;5015845;28;20214;-82
2023/12/07 00:47:59;;;;;;;4.80;2.37;;;4.60;99.90;;;;;;5033319;28;20202;-82
2023/12/07 00:50:25;;;;;;;0.40;0.40;;;4.70;99.90;;;;;;5033697;28;20685;-82
2023/12/07 00:52:50;;;;;;;1.17;0.50;;;4.50;99.90;;;;;;5033027;28;20223;-82
2023/12/07 00:55:16;;;;;;;1.33;0.63;;;4.50;99.90;;;;;;5012248;28;20225;-83
2023/12/07 00:57:42;;;;;;;4.20;1.77;;;4.60;99.90;;;;;;5035436;28;20229;-82
2023/12/07 01:00:08;;;;;;;0.47;0.40;;;4.70;99.90;;;;;;5035475;28;20276;-82
2023/12/07 01:02:34;;;;;;;0.97;0.97;;;4.60;99.90;;;;;;5003327;28;20206;-82
2023/12/07 01:05:00;;;;;;;0.73;0.73;;;4.70;99.90;;;;;;5018918;28;20253;-82
2023/12/07 01:07:26;;;;;;;1.13;1.03;;;4.70;99.90;;;;;;5018379;28;20233;-82
2023/12/07 01:09:52;;;;;;;1.30;0.97;;;4.70;99.90;;;;;;5018555;28;20280;-82
2023/12/07 01:12:17;;;;;;;1.53;1.43;;;4.80;99.90;;;;;;5018551;28;20244;-83
2023/12/07 01:14:43;;;;;;;0.97;0.80;;;4.80;99.90;;;;;;5002339;28;20182;-82
2023/12/07 01:17:09;;;;;;;0.23;0.23;;;4.70;99.90;;;;;;5035577;28;20237;-82
2023/12/07 01:19:35;;;;;;;0.93;0.93;;;4.70;99.90;;;;;;5018832;28;20272;-82
2023/12/07 01:22:00;;;;;;;0.73;0.73;;;4.60;99.90;;;;;;5018394;28;20313;-82
2023/12/07 01:24:26;;;;;;;0.90;0.90;;;4.60;99.90;;;;;;5052619;28;20217;-84
2023/12/07 01:26:52;;;;;;;1.03;0.83;;;4.40;99.90;;;;;;5051438;28;20185;-83
2023/12/07 01:29:17;;;;;;;0.90;0.90;;;4.30;99.90;;;;;;5018653;28;20577;-83
2023/12/07 01:31:43;;;;;;;0.67;0.60;;;4.40;99.90;;;;;;5002264;28;20231;-82
2023/12/07 01:34:09;;;;;;;0.50;0.50;;;4.40;99.90;;;;;;5018381;28;20242;-82
2023/12/07 01:36:35;;;;;;;2.03;1.60;;;4.30;99.90;;;;;;5018303;28;20260;-81
2023/12/07 01:39:01;;;;;;;1.07;1.07;;;4.40;99.90;;;;;;5034901;28;20182;-82
2023/12/07 01:41:27;;;;;;;1.57;1.10;;;4.40;99.90;;;;;;5035790;28;20272;-82
2023/12/07 01:43:52;;;;;;;0.50;0.50;;;4.40;99.90;;;;;;5001823;28;20248;-83
2023/12/07 01:46:18;;;;;;;1.23;1.23;;;4.30;99.90;;;;;;5018257;28;20214;-82
2023/12/07 01:48:48;;;;;;;1.27;1.27;;;4.30;99.90;;;;;;5034466;28;20232;-82
2023/12/07 01:51:15;;;;;;;1.67;1.57;;;4.20;99.90;;;;;;5052152;28;20224;-83
2023/12/07 01:53:40;;;;;;;0.77;0.77;;;4.10;99.90;;;;;;5018876;28;20186;-82
2023/12/07 01:56:08;;;;;;;0.30;0.30;;;4.00;99.90;;;;;;5034439;28;20588;-82
2023/12/07 01:58:34;;;;;;;1.77;1.67;;;4.00;99.90;;;;;;5001730;28;20209;-82
2023/12/07 02:01:01;;;;;;;1.17;1.17;;;3.90;99.90;;;;;;5018100;28;20751;-81
2023/12/07 02:03:27;;;;;;;2.13;1.50;;;3.80;99.90;;;;;;5050590;28;20217;-82
2023/12/07 02:05:54;;;;;;;1.10;1.10;;;3.70;99.90;;;;;;5051801;28;20174;-81
2023/12/07 02:08:20;;;;;;;1.67;0.67;;;3.60;99.90;;;;;;5052279;28;20229;-82
2023/12/07 02:10:46;;;;;;;2.00;1.60;;;3.60;99.90;;;;;;5034061;28;20237;-82
2023/12/07 02:13:12;;;;;;;0.70;0.70;;;3.60;99.90;;;;;;5034432;28;20291;-82
2023/12/07 02:15:38;;;;;;;0.70;0.70;;;3.50;99.90;;;;;;5050700;28;20218;-82
2023/12/07 02:18:18;;;;;;;0.53;0.53;;;3.50;99.90;;;;;;5033395;28;20297;-82
2023/12/07 02:21:01;;;;;;;1.77;1.67;;;3.40;99.90;;;;;;5051481;28;20257;-82
2023/12/07 02:23:29;;;;;;;2.30;2.20;;;3.40;99.90;;;;;;5034889;28;20174;-82
2023/12/07 02:26:00;;;;;;;0.20;0.20;;;3.30;99.90;;;;;;5017631;28;20217;-82
2023/12/07 02:28:26;;;;;;;1.17;1.17;;;3.30;99.90;;;;;;5018396;28;20222;-82
2023/12/07 02:30:51;;;;;;;2.00;1.90;;;3.30;99.90;;;;;;5001074;28;20272;-83
2023/12/07 02:33:17;;;;;;;1.30;0.87;;;3.30;99.90;;;;;;5017386;28;20586;-81
2023/12/07 02:35:43;;;;;;;0.30;0.30;;;3.30;99.90;;;;;;5001508;28;20185;-81
2023/12/07 02:38:09;;;;;;;0.97;0.97;;;3.30;99.90;;;;;;5017681;28;20206;-81
2023/12/07 02:40:35;;;;;;;0.70;0.70;;;3.40;99.90;;;;;;5033841;28;20222;-82
2023/12/07 02:43:03;;;;;;;0.63;0.63;;;3.40;99.90;;;;;;5033662;28;20242;-82
2023/12/07 02:45:29;;;;;;;0.90;0.90;;;3.40;99.90;;;;;;5033802;28;20213;-82
2023/12/07 02:47:54;;;;;;;0.97;0.97;;;3.40;99.90;;;;;;5051379;28;20184;-81
2023/12/07 02:50:20;;;;;;;0.30;0.30;;;3.30;99.90;;;;;;5034345;28;20256;-82
2023/12/07 02:52:46;;;;;;;0.60;0.60;;;3.30;99.90;;;;;;5017329;28;20229;-81
2023/12/07 02:55:12;;;;;;;0.30;0.30;;;3.30;99.90;;;;;;5051592;28;20217;-81
2023/12/07 02:57:38;;;;;;;1.20;1.20;;;3.40;99.90;;;;;;5016897;28;20220;-81
2023/12/07 03:00:06;;;;;;;0.63;0.63;;;3.50;99.90;;;;;;5000985;28;20213;-81
2023/12/07 03:02:36;;;;;;;1.87;1.77;;;3.30;99.90;;;;;;5034377;28;20202;-81
2023/12/07 03:05:03;;;;;;;0.70;0.67;;;3.30;99.90;;;;;;5051276;28;20248;-81
2023/12/07 03:07:29;;;;;;;0.77;0.77;;;3.20;99.90;;;;;;5013950;28;21323;-83
2023/12/07 03:09:54;;;;;;;1.47;1.23;;;3.10;99.90;;;;;;4981139;28;20698;-81
2023/12/07 03:12:20;;;;;;;0.63;0.63;;;3.20;99.90;;;;;;4997586;28;20296;-81
2023/12/07 03:14:46;;;;;;;0.97;0.60;;;3.10;99.90;;;;;;5014069;28;20179;-82
2023/12/07 03:17:12;;;;;;;0.63;0.63;;;3.10;99.90;;;;;;4998021;28;20194;-82
2023/12/07 03:19:39;;;;;;;0.73;0.73;;;3.10;99.90;;;;;;5014487;28;20222;-82
2023/12/07 03:22:06;;;;;;;0.30;0.30;;;3.10;99.90;;;;;;4981290;28;20600;-81
2023/12/07 03:24:34;;;;;;;0.67;0.67;;;3.10;99.90;;;;;;4981432;28;20210;-82
2023/12/07 03:27:00;;;;;;;1.13;1.03;;;3.20;99.90;;;;;;4997116;28;20690;-82
2023/12/07 03:29:26;;;;;;;0.50;0.50;;;3.20;99.90;;;;;;4983354;28;20201;-83
2023/12/07 03:31:51;;;;;;;0.60;0.60;;;3.10;99.90;;;;;;5017296;28;20665;-81
2023/12/07 03:34:17;;;;;;;0.47;0.47;;;3.10;99.90;;;;;;5016886;28;20223;-83
2023/12/07 03:36:46;;;;;;;0.30;0.30;;;3.30;99.90;;;;;;4984569;28;20229;-81
2023/12/07 03:39:13;;;;;;;0.40;0.40;;;3.30;99.90;;;;;;5000482;28;20219;-81
2023/12/07 03:41:39;;;;;;;0.40;0.40;;;3.30;99.90;;;;;;5017546;28;20210;-82
2023/12/07 03:44:05;;;;;;;0.60;0.60;;;3.50;99.90;;;;;;5000796;28;20214;-83
2023/12/07 03:46:30;;;;;;;0.60;0.60;;;3.50;99.90;;;;;;5000891;28;20222;-81
2023/12/07 03:48:56;;;;;;;1.33;1.33;;;3.50;99.90;;;;;;5016748;28;20689;-82
2023/12/07 03:51:22;;;;;;;0.50;0.50;;;3.60;99.90;;;;;;5000662;28;20226;-82
2023/12/07 03:53:48;;;;;;;1.00;1.00;;;3.50;99.90;;;;;;4983966;28;20578;-81
2023/12/07 03:56:30;;;;;;;0.50;0.50;;;3.50;99.90;;;;;;5001214;28;20193;-83
2023/12/07 03:58:56;;;;;;;0.87;0.87;;;3.60;99.90;;;;;;5034001;28;20226;-82
2023/12/07 04:01:27;;;;;;;0.87;0.87;;;3.50;99.90;;;;;;5016747;28;20218;-82
2023/12/07 04:03:54;;;;;;;1.37;1.37;;;3.50;99.90;;;;;;5016559;28;20229;-82
2023/12/07 04:06:21;;;;;;;0.80;0.80;;;3.50;99.90;;;;;;5016408;28;20229;-82
2023/12/07 04:08:47;;;;;;;0.87;0.87;;;3.50;99.90;;;;;;5016466;28;20238;-82
2023/12/07 04:11:14;;;;;;;0.77;0.77;;;3.50;99.90;;;;;;4984338;28;20708;-83
2023/12/07 04:13:41;;;;;;;0.43;0.43;;;3.50;99.90;;;;;;5016511;28;20232;-82
2023/12/07 04:16:07;;;;;;;1.23;1.23;;;3.50;99.90;;;;;;5008213;28;20229;-82
2023/12/07 04:18:33;;;;;;;0.77;0.77;;;3.40;99.90;;;;;;5032914;28;20254;-83
2023/12/07 04:20:59;;;;;;;1.17;1.17;;;3.50;99.90;;;;;;5033475;28;20225;-83
2023/12/07 04:23:24;;;;;;;0.57;0.57;;;3.50;99.90;;;;;;5032994;28;20179;-83
2023/12/07 04:25:50;;;;;;;0.67;0.67;;;3.50;99.90;;;;;;5016275;28;20230;-82
2023/12/07 04:28:16;;;;;;;1.03;0.87;;;3.60;99.90;;;;;;5016150;28;20596;-82
2023/12/07 04:30:42;;;;;;;0.70;0.70;;;3.60;99.90;;;;;;5033967;28;20225;-82
2023/12/07 04:33:07;;;;;;;1.10;1.10;;;3.60;99.90;;;;;;5032465;28;20572;-82
2023/12/07 04:35:34;;;;;;;0.83;0.83;;;3.60;99.90;;;;;;5016728;28;20191;-81
2023/12/07 04:38:00;;;;;;;0.63;0.63;;;3.60;99.90;;;;;;5015983;28;20218;-82
2023/12/07 04:40:29;;;;;;;1.00;1.00;;;3.60;99.90;;;;;;5015879;28;20221;-82
2023/12/07 04:42:55;;;;;;;1.57;1.50;;;3.70;99.90;;;;;;5033847;28;20239;-82
2023/12/07 04:45:20;;;;;;;0.73;0.73;;;3.70;99.90;;;;;;5032160;28;20707;-83
2023/12/07 04:47:46;;;;;;;0.73;0.73;;;3.60;99.90;;;;;;5015598;28;20179;-82
2023/12/07 04:50:12;;;;;;;1.80;1.70;;;3.60;99.90;;;;;;5016429;28;20237;-82
2023/12/07 04:52:38;;;;;;;0.93;0.93;;;3.50;99.90;;;;;;5032759;28;20214;-82
2023/12/07 04:55:08;;;;;;;2.10;1.20;;;3.50;99.90;;;;;;5031884;28;20292;-83
2023/12/07 04:57:34;;;;;;;1.30;1.30;;;3.40;99.90;;;;;;5032353;28;20222;-82
2023/12/07 05:00:00;;;;;;;0.70;0.70;;;3.40;99.90;;;;;;5015200;28;20187;-84
2023/12/07 05:02:27;;;;;;;0.60;0.60;;;3.40;99.90;;;;;;5016139;28;20717;-82
2023/12/07 05:04:53;;;;;;;0.67;0.67;;;3.30;99.90;;;;;;4999060;28;20297;-82
2023/12/07 05:07:20;;;;;;;13.13;1.83;;;3.40;99.90;;;;;;5001018;28;20655;-83
2023/12/07 05:09:46;;;;;;;0.40;0.40;;;3.30;99.90;;;;;;5052931;28;20230;-82
2023/12/07 05:12:11;;;;;;;0.70;0.70;;;3.30;99.90;;;;;;5018275;28;20228;-82
2023/12/07 05:14:37;;;;;;;0.87;0.87;;;3.40;99.90;;;;;;5035638;28;20166;-83
2023/12/07 05:17:05;;;;;;;1.30;1.03;;;3.40;99.90;;;;;;4999611;28;20375;-83
2023/12/07 05:19:30;;;;;;;0.57;0.57;;;3.40;99.90;;;;;;5014792;28;20218;-82
2023/12/07 05:21:56;;;;;;;0.50;0.50;;;3.40;99.90;;;;;;5025324;28;20288;-82
2023/12/07 05:24:22;;;;;;;0.60;0.60;;;3.40;99.90;;;;;;5004250;28;20218;-82
2023/12/07 05:26:48;;;;;;;0.97;0.97;;;3.30;99.90;;;;;;5034455;28;20532;-81
2023/12/07 05:29:15;;;;;;;0.83;0.83;;;3.30;99.90;;;;;;5019036;28;20676;-80
2023/12/07 05:31:40;;;;;;;1.17;1.07;;;3.30;99.90;;;;;;5034946;28;20292;-83
2023/12/07 05:34:07;;;;;;;0.50;0.47;;;3.30;99.90;;;;;;5018184;28;20226;-83
2023/12/07 05:36:33;;;;;;;0.97;0.97;;;3.20;99.90;;;;;;5027926;28;20214;-83
2023/12/07 05:38:59;;;;;;;3.60;0.77;;;3.30;99.90;;;;;;5017309;28;20245;-84
2023/12/07 05:41:25;;;;;;;1.57;1.50;;;3.30;99.90;;;;;;5034911;28;20213;-83
2023/12/07 05:43:52;;;;;;;0.43;0.43;;;3.30;99.90;;;;;;5018390;28;20225;-83
2023/12/07 05:46:19;;;;;;;0.57;0.57;;;3.30;99.90;;;;;;5018100;28;20221;-85
2023/12/07 05:48:45;;;;;;;0.70;0.70;;;3.20;99.90;;;;;;5034622;28;20225;-83
2023/12/07 05:51:14;;;;;;;0.53;0.53;;;3.30;99.90;;;;;;5034810;28;20214;-83
2023/12/07 05:53:40;;;;;;;1.13;1.13;;;3.30;99.90;;;;;;5035031;28;20264;-84
2023/12/07 05:56:06;;;;;;;0.83;0.83;;;3.30;99.90;;;;;;5034328;28;20736;-84
2023/12/07 05:58:32;;;;;;;1.40;1.30;;;3.30;99.90;;;;;;5018421;28;20684;-82
2023/12/07 06:01:00;;;;;;;1.13;1.07;;;3.20;99.90;;;;;;5001623;28;20222;-83
2023/12/07 06:03:25;;;;;;;1.63;1.43;;;3.20;99.90;;;;;;5034581;28;20220;-83
2023/12/07 06:05:52;;;;;;;0.97;0.97;;;3.10;99.90;;;;;;5034049;28;20265;-82
2023/12/07 06:08:17;;;;;;;1.07;1.07;;;3.10;99.90;;;;;;4998403;28;20241;-83
2023/12/07 06:10:43;;;;;;;0.93;0.93;;;3.10;99.90;;;;;;5030841;28;20253;-82
2023/12/07 06:13:10;;;;;;;0.73;0.73;;;3.00;99.90;;;;;;5031300;28;20230;-82
2023/12/07 06:15:36;;;;;;;1.70;1.17;;;2.90;99.90;;;;;;5030849;28;20210;-83
2023/12/07 06:18:03;;;;;;;1.80;1.17;;;2.70;99.90;;;;;;5047180;28;20201;-86
2023/12/07 06:20:29;;;;;;;1.47;1.37;;;2.60;99.90;;;;;;5032647;28;20232;-86
2023/12/07 06:22:54;;;;;;;1.43;1.43;;;2.60;99.90;;;;;;5014480;28;20226;-86
2023/12/07 06:25:20;;;;;;;1.70;1.60;;;2.50;99.90;;;;;;5031672;28;20234;-87
2023/12/07 06:27:46;;;;;;;1.37;1.27;;;2.60;99.90;;;;;;5031051;28;20226;-86
2023/12/07 06:30:12;;;;;;;1.57;1.47;;;2.60;99.90;;;;;;5014327;28;20214;-85
2023/12/07 06:32:38;;;;;;;1.10;1.10;;;2.50;99.90;;;;;;5031218;28;20187;-86
2023/12/07 06:35:04;;;;;;;5.93;2.90;;;2.50;99.90;;;;;;5031290;28;20230;-85
2023/12/07 06:37:30;;;;;;;2.50;2.33;;;2.60;99.90;;;;;;5030924;28;20231;-86
2023/12/07 06:39:56;;;;;;;1.47;1.40;;;2.50;99.90;;;;;;5047432;28;20214;-85
2023/12/07 06:42:21;;;;;;;1.40;1.33;;;2.50;99.90;;;;;;5047014;28;20301;-87
2023/12/07 06:44:51;;;;;;;1.67;1.57;;;2.40;99.90;;;;;;5047839;28;20269;-87
2023/12/07 06:47:18;;;;;;;1.03;1.03;;;2.40;99.90;;;;;;5031816;28;20241;-85
2023/12/07 06:49:44;;;;;;;2.87;2.00;;;2.30;99.90;;;;;;5031034;28;20214;-86
2023/12/07 06:52:10;;;;;;;1.67;0.50;;;2.40;99.90;;;;;;5030907;28;20221;-85
2023/12/07 06:54:37;;;;;;;1.27;1.20;;;2.30;99.90;;;;;;5002378;28;20674;-85
2023/12/07 06:57:02;;;;;;;2.07;1.97;;;2.30;99.90;;;;;;5034016;28;20182;-85
2023/12/07 06:59:28;;;;;;;2.17;2.07;;;2.30;99.90;;;;;;5034473;28;20182;-85
2023/12/07 07:01:54;;;;;;;1.60;1.33;;;2.30;99.90;;;;;;5050442;28;20225;-85
2023/12/07 07:04:20;;;;;;;3.03;1.27;;;2.20;99.90;;;;;;5035345;28;20229;-84
2023/12/07 07:06:46;;;;;;;0.87;0.87;;;2.20;99.90;;;;;;5038348;28;20217;-85
2023/12/07 07:09:12;;;;;;;2.13;1.73;;;2.20;99.90;;;;;;5004196;28;20697;-86
2023/12/07 07:11:38;;;;;;;3.10;1.17;;;2.20;99.90;;;;;;5036464;28;20187;-88
2023/12/07 07:14:04;;;;;;;1.70;1.60;;;2.30;99.90;;;;;;5001682;28;20709;-85
2023/12/07 07:16:30;;;;;;;1.73;1.67;;;2.10;99.90;;;;;;5034289;28;20701;-87
2023/12/07 07:18:56;;;;;;;2.13;2.03;;;2.10;99.90;;;;;;5018024;28;20215;-85
2023/12/07 07:21:22;;;;;;;0.97;0.97;;;2.20;99.90;;;;;;5001353;28;20226;-85
2023/12/07 07:23:48;;;;;;;1.23;1.23;;;2.10;99.90;;;;;;5017934;28;20207;-88
2023/12/07 07:26:16;;;;;;;2.47;2.33;;;2.00;99.90;;;;;;5018435;28;20196;-86
2023/12/07 07:28:45;;;;;;;1.57;1.23;;;2.00;99.90;;;;;;5018375;28;20249;-84
2023/12/07 07:31:11;;;;;;;1.13;1.13;;;1.90;99.90;;;;;;5001739;28;20225;-88
2023/12/07 07:33:37;;;;;;;1.10;1.10;;;1.90;99.90;;;;;;5001180;28;20206;-86
2023/12/07 07:36:03;;;;;;;1.73;1.37;;;1.90;99.90;;;;;;5000829;28;20179;-85
2023/12/07 07:38:29;;;;;;;1.77;1.73;;;1.90;99.90;;;;;;5018266;28;20220;-85
2023/12/07 07:40:55;;;;;;;2.63;1.87;;;1.90;99.90;;;;;;5017051;28;20222;-85
2023/12/07 07:43:21;;;;;;;1.83;1.77;;;1.90;99.90;;;;;;5016980;28;20241;-83
2023/12/07 07:45:50;;;;;;;1.70;1.60;;;1.90;99.90;;;;;;5001214;28;20218;-85
2023/12/07 07:48:18;;;;;;;1.80;1.70;;;2.00;99.90;;;;;;5000901;28;20669;-84
2023/12/07 07:50:44;;;;;;;0.80;0.80;;;2.00;99.90;;;;;;5033235;28;20179;-85
2023/12/07 07:53:10;;;;;;;0.90;0.90;;;2.10;99.90;;;;;;5017691;28;20523;-85
2023/12/07 07:55:38;;;;;;;14.23;3.20;;;2.50;99.90;;;;;;5034849;28;20233;-84
2023/12/07 07:58:04;;;;;;;1.63;1.53;;;2.60;99.90;;;;;;5016727;28;20662;-85
2023/12/07 08:00:30;;;;;;;1.80;1.63;;;2.70;99.90;;;;;;5016831;28;20276;-85
2023/12/07 08:02:56;;;;;;;2.73;2.60;;;2.80;99.90;;;;;;5016566;28;20245;-88
2023/12/07 08:05:22;;;;;;;1.00;1.00;;;2.80;99.90;;;;;;4985201;28;20183;-84
2023/12/07 08:07:48;;;;;;;1.83;1.73;;;2.80;99.90;;;;;;5006089;28;20237;-86
2023/12/07 08:10:13;;;;;;;2.70;2.60;;;2.90;99.90;;;;;;5013653;28;20240;-84
2023/12/07 08:12:40;;;;;;;2.30;2.20;;;2.80;99.90;;;;;;5036015;28;20257;-85
2023/12/07 08:15:10;;;;;;;3.33;3.13;;;2.90;99.90;;;;;;5035546;28;20225;-86
2023/12/07 08:17:45;;;;;;;2.90;2.70;;;2.90;99.90;;;;;;5021152;28;20265;-87
2023/12/07 08:20:12;;;;;;;8.73;3.87;;;3.00;99.90;;;;;;5020022;28;20217;-85
2023/12/07 08:22:39;;;;;;;2.13;1.97;;;3.00;99.90;;;;;;5028054;28;20245;-85
2023/12/07 08:25:05;;;;;;;2.73;1.73;;;3.10;99.90;;;;;;5054062;28;20217;-84
2023/12/07 08:27:34;;;;;;;2.63;2.43;;;3.10;99.90;;;;;;5036550;28;20205;-86
2023/12/07 08:30:01;;;;;;;1.70;1.60;;;3.20;99.90;;;;;;5019427;28;20265;-86
2023/12/07 08:32:27;;;;;;;2.70;2.07;;;3.30;99.90;;;;;;5020167;28;20182;-86
2023/12/07 08:34:53;;;;;;;1.67;1.60;;;3.30;99.90;;;;;;5019753;28;20697;-86
2023/12/07 08:37:19;;;;;;;1.93;1.83;;;3.20;99.90;;;;;;5053737;28;20214;-85
2023/12/07 08:39:45;;;;;;;4.37;1.67;;;3.20;99.90;;;;;;5019684;28;20279;-86
2023/12/07 08:42:11;;;;;;;1.67;1.60;;;3.10;99.90;;;;;;5035515;28;20202;-86
2023/12/07 08:44:37;;;;;;;2.10;1.80;;;3.10;99.90;;;;;;5020006;28;20196;-86
2023/12/07 08:47:03;;;;;;;2.87;2.67;;;3.20;99.90;;;;;;5054234;28;20731;-88
2023/12/07 08:49:29;;;;;;;3.90;1.23;;;3.20;99.90;;;;;;5035474;28;20222;-85
2023/12/07 08:51:55;;;;;;;5.43;2.47;;;3.10;99.90;;;;;;5035948;28;20259;-85
2023/12/07 08:54:24;;;;;;;1.77;1.67;;;3.00;99.90;;;;;;5052307;28;20210;-86
2023/12/07 08:56:50;;;;;;;2.63;2.50;;;3.00;99.90;;;;;;5036736;28;20178;-87
2023/12/07 08:59:16;;;;;;;1.43;1.43;;;3.00;99.90;;;;;;5019381;28;20694;-86
2023/12/07 09:01:42;;;;;;;1.73;1.63;;;3.00;99.90;;;;;;5011250;28;20252;-86
2023/12/07 09:04:08;;;;;;;2.13;1.73;;;3.00;99.90;;;;;;5035601;28;20720;-86
2023/12/07 09:06:36;;;;;;;3.73;2.67;;;3.00;99.90;;;;;;5019502;28;20253;-86
2023/12/07 09:09:05;;;;;;;3.23;3.03;;;2.90;99.90;;;;;;5002321;28;20234;-85
2023/12/07 09:11:33;;;;;;;1.97;1.33;;;2.90;99.90;;;;;;5016130;28;20182;-86
2023/12/07 09:14:00;;;;;;;1.27;1.07;;;2.80;99.90;;;;;;5016013;28;20222;-86
2023/12/07 09:16:28;;;;;;;1.00;1.00;;;2.80;99.90;;;;;;5028139;28;20306;-86
2023/12/07 09:18:54;;;;;;;2.20;2.00;;;2.90;99.90;;;;;;5004150;28;20294;-88
2023/12/07 09:21:20;;;;;;;2.87;2.27;;;2.80;99.90;;;;;;4995870;28;20652;-86
2023/12/07 09:23:46;;;;;;;1.67;1.50;;;3.00;99.90;;;;;;5013664;28;20631;-87
2023/12/07 09:26:11;;;;;;;0.67;0.67;;;3.00;99.90;;;;;;5031133;28;20739;-86
2023/12/07 09:28:39;;;;;;;1.77;1.77;;;3.00;99.90;;;;;;4999259;28;20214;-86
2023/12/07 09:31:06;;;;;;;3.03;2.73;;;2.90;99.90;;;;;;4999250;28;20234;-86
2023/12/07 09:33:31;;;;;;;3.83;3.13;;;3.00;99.90;;;;;;5010134;28;20221;-85
2023/12/07 09:35:57;;;;;;;11.73;2.83;;;2.90;99.90;;;;;;4995484;28;20179;-85
2023/12/07 09:38:23;;;;;;;1.70;1.60;;;3.00;99.90;;;;;;4996125;28;20174;-85
2023/12/07 09:40:53;;;;;;;1.13;1.13;;;3.00;99.90;;;;;;4994699;28;20242;-86
2023/12/07 09:43:22;;;;;;;2.50;2.40;;;3.00;99.90;;;;;;5020850;28;20259;-88
2023/12/07 09:45:48;;;;;;;1.57;1.50;;;3.10;99.90;;;;;;5019263;28;20237;-85
2023/12/07 09:48:15;;;;;;;8.67;2.53;;;3.10;99.90;;;;;;4995505;28;20227;-85
2023/12/07 09:50:41;;;;;;;2.00;1.33;;;3.10;99.90;;;;;;4995964;28;20175;-87
2023/12/07 09:53:08;;;;;;;4.70;2.87;;;3.20;99.90;;;;;;4997491;28;20360;-85
2023/12/07 09:55:36;;;;;;;1.47;1.43;;;3.10;99.90;;;;;;5001644;28;20229;-86
2023/12/07 09:58:06;;;;;;;6.30;3.27;;;3.20;99.90;;;;;;5004527;28;20317;-86
2023/12/07 10:00:33;;;;;;;2.80;2.27;;;3.20;99.90;;;;;;5015271;28;20680;-87
2023/12/07 10:02:59;;;;;;;1.97;1.83;;;3.10;99.90;;;;;;5003930;28;20198;-87
2023/12/07 10:05:25;;;;;;;11.93;3.43;;;3.30;99.90;;;;;;5015421;28;20229;-85
2023/12/07 10:07:51;;;;;;;3.50;1.77;;;3.30;99.90;;;;;;5014115;28;20253;-86
2023/12/07 10:10:18;;;;;;;1.53;1.43;;;3.30;99.90;;;;;;5014971;28;20222;-87
2023/12/07 10:12:55;;;;;;;2.17;1.90;;;3.40;99.90;;;;;;5008676;28;20221;-89
2023/12/07 10:15:23;;;;;;;2.83;2.57;;;3.30;99.90;;;;;;5034183;28;20259;-86
2023/12/07 10:17:59;;;;;;;3.37;3.17;;;3.30;99.90;;;;;;5018558;28;20265;-85
2023/12/07 10:20:29;;;;;;;3.43;3.23;;;3.40;99.90;;;;;;5051998;28;20232;-86
2023/12/07 10:23:04;;;;;;;2.77;2.57;;;3.30;99.90;;;;;;5034570;28;20237;-87
2023/12/07 10:25:36;;;;;;;1.20;1.20;;;3.40;99.90;;;;;;5052051;28;20260;-86
2023/12/07 10:28:07;;;;;;;2.53;2.37;;;3.50;99.90;;;;;;5034389;28;20229;-87
2023/12/07 10:30:34;;;;;;;2.67;2.53;;;3.50;99.90;;;;;;5035043;28;20728;-87
2023/12/07 10:32:59;;;;;;;1.67;1.57;;;3.50;99.90;;;;;;5051739;28;20178;-87
2023/12/07 10:35:25;;;;;;;1.60;1.60;;;3.50;99.90;;;;;;5018397;28;20170;-85
2023/12/07 10:37:51;;;;;;;4.03;2.03;;;3.50;99.90;;;;;;5051860;28;20210;-88
2023/12/07 10:40:20;;;;;;;1.57;1.50;;;3.60;99.90;;;;;;5013789;28;20296;-86
2023/12/07 10:42:50;;;;;;;3.63;1.47;;;3.50;99.90;;;;;;5017839;28;20246;-86
2023/12/07 10:45:17;;;;;;;1.93;1.83;;;3.60;99.90;;;;;;5031319;28;20217;-86
2023/12/07 10:47:44;;;;;;;3.30;2.47;;;3.70;99.90;;;;;;5014994;28;20229;-87
2023/12/07 10:50:13;;;;;;;1.33;1.23;;;3.80;99.90;;;;;;5031645;28;20670;-88
2023/12/07 10:52:45;;;;;;;2.47;2.37;;;3.80;99.90;;;;;;5030114;28;20670;-86
2023/12/07 10:55:16;;;;;;;1.47;1.37;;;3.80;99.90;;;;;;5041571;28;20689;-86
2023/12/07 10:57:43;;;;;;;3.90;2.57;;;3.80;99.90;;;;;;5034202;28;20719;-87
2023/12/07 11:00:10;;;;;;;1.60;1.47;;;3.90;99.90;;;;;;5017597;28;20522;-85
2023/12/07 11:02:37;;;;;;;2.77;2.57;;;4.00;99.90;;;;;;5017989;28;20202;-87
2023/12/07 11:05:06;;;;;;;2.47;2.17;;;4.10;99.90;;;;;;5017747;28;20225;-85
2023/12/07 11:08:04;;;;;;;1.03;1.03;;;4.10;99.90;;;;;;5033450;28;20743;-86
2023/12/07 11:10:34;;;;;;;4.37;3.70;;;4.10;99.90;;;;;;5036030;28;20309;-86
2023/12/07 11:13:07;;;;;;;6.20;3.90;;;4.00;99.90;;;;;;5051363;28;20213;-88
2023/12/07 11:15:33;;;;;;;1.87;1.77;;;4.10;99.90;;;;;;5033947;28;20232;-86
2023/12/07 11:18:02;;;;;;;4.47;1.80;;;4.10;99.90;;;;;;5033980;28;20666;-87
2023/12/07 11:20:48;;;;;;;3.30;3.10;;;4.20;99.90;;;;;;5018182;28;20178;-86
2023/12/07 11:23:20;;;;;;;4.40;3.13;;;4.10;99.90;;;;;;5051535;28;20309;-87
2023/12/07 11:25:47;;;;;;;2.60;2.43;;;4.10;99.90;;;;;;5017796;28;20668;-86
2023/12/07 11:28:14;;;;;;;2.30;2.00;;;4.20;99.90;;;;;;5033533;28;20209;-86
2023/12/07 11:30:45;;;;;;;2.70;2.50;;;4.20;99.90;;;;;;5052146;28;20218;-86
2023/12/07 11:33:12;;;;;;;5.40;2.97;;;4.20;99.90;;;;;;5033708;28;20217;-85
2023/12/07 11:36:02;;;;;;;2.67;2.47;;;4.20;99.90;;;;;;5034467;28;20182;-86
2023/12/07 11:38:28;;;;;;;3.87;3.57;;;4.30;99.90;;;;;;5033851;28;20230;-85
2023/12/07 11:40:55;;;;;;;2.50;2.40;;;4.30;99.90;;;;;;5050721;28;20596;-86
2023/12/07 11:43:35;;;;;;;8.30;5.27;;;4.30;99.90;;;;;;5007315;28;20787;-87
2023/12/07 11:46:03;;;;;;;2.30;2.20;;;4.40;99.90;;;;;;5033794;28;20658;-84
2023/12/07 11:48:32;;;;;;;2.03;1.93;;;4.50;99.90;;;;;;5033647;28;20669;-87
2023/12/07 11:51:12;;;;;;;3.77;3.57;;;4.50;99.90;;;;;;5036139;28;20638;-87
2023/12/07 11:53:38;;;;;;;3.13;2.93;;;4.60;99.90;;;;;;5056286;28;20162;-86
2023/12/07 11:56:06;;;;;;;2.77;2.57;;;4.60;99.90;;;;;;5020246;28;20215;-86
2023/12/07 11:58:33;;;;;;;3.77;3.50;;;4.50;99.90;;;;;;5037006;28;20218;-84
2023/12/07 12:01:05;;;;;;;2.50;2.30;;;4.60;99.90;;;;;;5016782;28;20686;-86
2023/12/07 12:03:36;;;;;;;4.77;2.70;;;4.60;99.90;;;;;;5031482;28;20278;-83
2023/12/07 12:06:05;;;;;;;3.30;2.10;;;4.60;99.90;;;;;;5000718;28;20205;-86
2023/12/07 12:08:31;;;;;;;3.00;2.77;;;4.60;99.90;;;;;;5033428;28;20237;-84
2023/12/07 12:10:57;;;;;;;3.17;2.90;;;4.60;99.90;;;;;;5016535;28;20233;-82
2023/12/07 12:13:28;;;;;;;2.33;2.23;;;4.60;99.90;;;;;;5017025;28;20302;-83
2023/12/07 12:15:55;;;;;;;7.60;3.20;;;4.60;99.90;;;;;;5034431;28;20679;-84
2023/12/07 12:18:22;;;;;;;2.57;2.37;;;4.70;99.90;;;;;;5000224;28;20218;-83
2023/12/07 12:20:51;;;;;;;4.43;2.37;;;4.80;99.90;;;;;;5017141;28;20175;-84
2023/12/07 12:23:16;;;;;;;2.43;2.27;;;4.70;99.90;;;;;;5034008;28;20276;-85
2023/12/07 12:25:43;;;;;;;2.43;2.20;;;4.70;99.90;;;;;;5014818;28;20673;-83
2023/12/07 12:28:09;;;;;;;1.87;1.77;;;4.70;99.90;;;;;;5036154;28;20214;-85
2023/12/07 12:30:36;;;;;;;2.63;2.43;;;4.60;99.90;;;;;;5019878;28;20209;-84
2023/12/07 12:33:02;;;;;;;3.63;1.97;;;4.70;99.90;;;;;;5019175;28;20695;-84
2023/12/07 12:35:28;;;;;;;2.47;2.27;;;4.70;99.90;;;;;;5036184;28;20233;-83
2023/12/07 12:37:57;;;;;;;1.70;1.60;;;4.80;99.90;;;;;;5035630;28;20221;-83
2023/12/07 12:40:26;;;;;;;2.30;2.20;;;4.70;99.90;;;;;;5035838;28;20542;-83
2023/12/07 12:42:53;;;;;;;4.13;3.73;;;4.70;99.90;;;;;;5035918;28;20226;-83
2023/12/07 12:45:19;;;;;;;4.27;1.63;;;4.70;99.90;;;;;;5036392;28;20259;-83
2023/12/07 12:47:46;;;;;;;1.83;1.73;;;4.70;99.90;;;;;;5036823;28;20615;-84
2023/12/07 12:50:32;;;;;;;2.87;2.67;;;4.80;99.90;;;;;;5020273;28;20256;-88
2023/12/07 12:53:02;;;;;;;1.70;1.60;;;4.80;99.90;;;;;;5036126;28;20233;-87
2023/12/07 12:55:30;;;;;;;0.93;0.93;;;4.80;99.90;;;;;;5036073;28;20217;-87
2023/12/07 12:57:57;;;;;;;4.53;4.23;;;4.70;99.90;;;;;;5028401;28;20689;-89